Gillam Airport
CYGX : now visible

Airfield :











YOU CAN JOIN US ON...

 
LOGIN :

Register | Disclaimer

   EN    FR    IT 

 









Legend :    VFR   Marginal VFR   IFR   Intensive IFR   Very Intensive IFR
Visi :
Ceiling :
>= 8 km
>= 3000ft
5 to 8 km
1000 to 3000 ft
1500m to 5 km
500 to 1000 ft
800 to 1500m
200 to 500 ft
< 800m
< 200 ft
Symbols :   Thunderstorms  Fog  Heavy snow  Heavy precipitations  Wind > 20 kt






- Airport Elevation : 476 ft
- IATA code : YGX


CYGX - Gillam

CURRENT METAR :
  • 222300Z 27006KT 15SM BKN020 11/08 A2983 RMK SC7 SLP108

EXPIRED METARs :
  • 222200Z 28007KT 15SM OVC019 11/08 A2981 RMK SC8 SLP103
  • 222100Z 30014G23KT 15SM OVC019 10/08 A2980 RMK SC8 SLP099

TAF TAF CYGX
Valid from the 22 at 19:00 until the 23 at 07:00 UTC


221838Z 2219/2307 28010KT P6SM OVC015
FM222100 30012G22KT P6SM BKN015 OVC025
TEMPO 2221/2307 SCT015 OVC025
BECMG 2303/2305 35014KT RMK NXT FCST BY 230100Z
CZWG FIR / North America



MET'MAP, your aeronautical weather chart ! - Copyright ORBIFLY December 2007 - Disclaimer

ORBIFLY MET'MAP TEAM :

Programming & Development : Alexandra Zaïnal
Concept & original design : Baudouin d'Aumeries
Assistance for programming : Marc-Olivier Méhu
Technical & hardware support : Manuel Goepfert

Contact : metmap@orbifly.com




SOURCES & CREDITS :

   NOAA       Earth
Advisory